Gibson, Tennessee
Current Conditions -  °F | °C
As of 8:53 AM on Saturday 25 Oct 2014 (Local Time) from KMKL Reporting Station
Broken Clouds Broken Clouds  
Wind Chill: 61°   Ceiling: 5500
Heat Index: 61°   Visibility: 10mi
Dew Point: 56°   Wind: 6mph
Humidity: 83%   Direction: 210°SSW
Pressure: 30.09"   Gusts: NA
Location:  35.88°N, 88.85°W
Report Text: KMKL 251353Z 21005KT 10SM BKN055 16/13 A3009 RMK AO2 SLP189 T01610133
Loading
Personal Weather Stations






























Interactive Weather Map
Tropical Storm Tracking
New forecast layout! Learn more

10-Day Weather Forecast

Advertisements
Track Severe Weather on mobile